createdAt,value
2022-12-31T00:01:45.457Z,1.20
2022-12-31T00:04:13.934Z,1.00
2022-12-31T00:06:42.634Z,1.10
2022-12-31T00:09:11.625Z,1.30
2022-12-31T00:11:40.916Z,1.10
2022-12-31T00:14:09.602Z,1.30
2022-12-31T00:16:41.424Z,1.30
2022-12-31T00:19:12.309Z,1.20
2022-12-31T00:21:41.100Z,0.90
2022-12-31T00:24:12.361Z,1.20
2022-12-31T00:26:41.034Z,1.10
2022-12-31T00:29:10.429Z,0.90
2022-12-31T00:31:39.831Z,0.80
2022-12-31T00:34:08.314Z,1.40
2022-12-31T00:36:39.619Z,1.00
2022-12-31T00:39:10.467Z,1.40
2022-12-31T00:41:39.301Z,0.90
2022-12-31T00:44:07.773Z,1.60
2022-12-31T00:49:06.786Z,1.10
2022-12-31T00:51:35.386Z,1.20
2022-12-31T00:54:04.463Z,1.30
2022-12-31T00:56:33.261Z,0.90
2022-12-31T00:59:01.950Z,1.10
2022-12-31T01:01:37.480Z,1.10
2022-12-31T01:04:10.884Z,1.00
2022-12-31T01:06:40.809Z,1.20
2022-12-31T01:09:11.685Z,1.20
2022-12-31T01:11:40.427Z,1.00
2022-12-31T01:14:18.554Z,1.30
2022-12-31T01:16:53.455Z,0.90
2022-12-31T01:19:26.869Z,0.90
2022-12-31T01:21:57.249Z,0.90
2022-12-31T01:24:26.081Z,0.90
2022-12-31T01:26:58.083Z,1.20
2022-12-31T01:29:27.858Z,1.20
2022-12-31T01:31:56.344Z,1.40
2022-12-31T01:34:25.027Z,1.60
2022-12-31T01:36:53.717Z,0.80
2022-12-31T01:39:22.405Z,0.80
2022-12-31T01:41:51.086Z,1.10
2022-12-31T01:44:25.537Z,0.90
2022-12-31T01:47:06.054Z,1.00
2022-12-31T01:49:45.220Z,1.30
2022-12-31T01:52:22.397Z,0.90
2022-12-31T01:55:06.137Z,1.00
2022-12-31T01:57:35.816Z,0.90
2022-12-31T02:00:06.988Z,0.70
2022-12-31T02:02:35.643Z,0.80
2022-12-31T02:05:29.147Z,1.00
2022-12-31T02:07:59.121Z,0.90
2022-12-31T02:10:27.645Z,0.70
2022-12-31T02:12:56.535Z,0.90
2022-12-31T02:15:46.455Z,0.70
2022-12-31T02:18:43.367Z,0.70
2022-12-31T02:21:33.968Z,0.70
2022-12-31T02:24:09.003Z,0.70
2022-12-31T02:27:02.167Z,0.60
2022-12-31T02:30:08.854Z,1.00
2022-12-31T02:33:18.492Z,0.70
2022-12-31T02:36:03.151Z,0.70
2022-12-31T02:38:36.070Z,0.60
2022-12-31T02:41:04.930Z,0.70
2022-12-31T02:43:33.516Z,1.00
2022-12-31T02:46:25.166Z,0.80
2022-12-31T02:49:13.079Z,0.80
2022-12-31T02:52:19.276Z,0.60
2022-12-31T02:55:16.637Z,0.70
2022-12-31T02:57:57.986Z,0.70
2022-12-31T03:00:46.072Z,0.80
2022-12-31T03:03:15.030Z,0.80
2022-12-31T03:05:45.093Z,0.70
2022-12-31T03:08:23.276Z,0.90
2022-12-31T03:10:52.532Z,0.80
2022-12-31T03:13:21.034Z,0.60
2022-12-31T03:15:50.922Z,0.70
2022-12-31T03:18:39.821Z,0.90
2022-12-31T03:21:32.286Z,0.70
2022-12-31T03:24:19.472Z,0.60
2022-12-31T03:26:48.185Z,0.90
2022-12-31T03:29:17.055Z,0.60
2022-12-31T03:31:45.763Z,0.70
2022-12-31T03:34:15.963Z,0.70
2022-12-31T03:36:44.750Z,0.70
2022-12-31T03:39:13.332Z,0.90
2022-12-31T03:41:42.024Z,0.80
2022-12-31T03:44:10.711Z,0.90
2022-12-31T03:46:39.395Z,0.80
2022-12-31T03:49:08.083Z,0.60
2022-12-31T03:51:36.667Z,0.70
2022-12-31T03:54:05.247Z,1.10
2022-12-31T03:56:33.832Z,0.70
2022-12-31T03:59:02.421Z,0.70
2022-12-31T04:01:32.426Z,0.80
2022-12-31T04:04:01.026Z,0.70
2022-12-31T04:06:29.708Z,0.70
2022-12-31T04:08:58.704Z,0.90
2022-12-31T04:11:27.286Z,0.80
2022-12-31T04:13:55.870Z,0.90
2022-12-31T04:16:24.602Z,0.80
2022-12-31T04:18:53.347Z,0.70
2022-12-31T04:21:21.930Z,0.70
2022-12-31T04:23:50.619Z,0.50
2022-12-31T04:26:19.533Z,0.60
2022-12-31T04:28:48.297Z,0.60
2022-12-31T04:31:16.781Z,0.80
2022-12-31T04:33:45.568Z,0.70
2022-12-31T04:36:14.260Z,1.00
2022-12-31T04:38:43.802Z,0.70
2022-12-31T04:41:18.691Z,0.50
2022-12-31T04:43:58.924Z,0.40
2022-12-31T04:46:31.353Z,0.50
2022-12-31T04:49:00.431Z,0.50
2022-12-31T04:51:30.786Z,0.30
2022-12-31T04:53:59.642Z,0.70
2022-12-31T04:56:29.204Z,0.50
2022-12-31T04:58:57.940Z,0.50
2022-12-31T05:01:26.779Z,0.40
2022-12-31T05:03:55.617Z,0.30
2022-12-31T05:06:24.613Z,0.50
2022-12-31T05:08:53.195Z,0.60
2022-12-31T05:11:22.098Z,0.60
2022-12-31T05:13:50.879Z,0.60
2022-12-31T05:16:19.516Z,0.40
2022-12-31T05:18:48.251Z,0.70
2022-12-31T05:21:21.381Z,0.80
2022-12-31T05:23:50.551Z,0.80
2022-12-31T05:26:19.122Z,0.40
2022-12-31T05:28:47.719Z,0.50
2022-12-31T05:31:16.424Z,0.70
2022-12-31T05:33:45.086Z,0.70
2022-12-31T05:36:14.913Z,0.80
2022-12-31T05:38:44.707Z,0.80
2022-12-31T05:41:13.190Z,0.70
2022-12-31T05:43:41.695Z,0.60
2022-12-31T05:46:10.513Z,0.70
2022-12-31T05:48:39.248Z,0.70
2022-12-31T05:51:07.833Z,0.70
2022-12-31T05:53:36.432Z,0.60
2022-12-31T05:56:05.571Z,0.60
2022-12-31T05:58:34.099Z,0.70
2022-12-31T06:01:03.004Z,0.50
2022-12-31T06:03:33.257Z,0.60
2022-12-31T06:06:01.921Z,0.50
2022-12-31T06:08:30.497Z,1.10
2022-12-31T06:10:59.174Z,2.00
2022-12-31T06:13:28.064Z,1.90
2022-12-31T06:15:56.596Z,1.20
2022-12-31T06:18:25.334Z,0.90
2022-12-31T06:20:53.924Z,0.60
2022-12-31T06:23:22.505Z,0.60
2022-12-31T06:25:51.093Z,0.50
2022-12-31T06:28:20.553Z,0.60
2022-12-31T06:30:49.421Z,0.60
2022-12-31T06:33:19.815Z,0.70
2022-12-31T06:35:48.292Z,0.80
2022-12-31T06:38:16.775Z,0.60
2022-12-31T06:40:45.358Z,0.70
2022-12-31T06:43:13.951Z,0.60
2022-12-31T06:45:42.733Z,0.80
2022-12-31T06:48:11.419Z,0.50
2022-12-31T06:50:40.724Z,3.80
2022-12-31T06:53:09.209Z,6.60
2022-12-31T06:55:38.470Z,1.50
2022-12-31T06:58:14.270Z,1.80
2022-12-31T07:01:21.727Z,1.20
2022-12-31T07:04:12.868Z,1.30
2022-12-31T07:06:49.131Z,1.20
2022-12-31T07:09:39.321Z,2.20
2022-12-31T07:12:51.528Z,3.40
2022-12-31T07:15:26.052Z,2.60
2022-12-31T07:18:42.460Z,2.10
2022-12-31T07:21:15.334Z,1.20
2022-12-31T07:23:44.757Z,1.40
2022-12-31T07:26:56.831Z,2.00
2022-12-31T07:29:41.104Z,3.10
2022-12-31T07:32:49.524Z,1.00
2022-12-31T07:35:48.115Z,1.10
2022-12-31T07:38:59.372Z,0.90
2022-12-31T07:41:46.521Z,0.70
2022-12-31T07:44:20.938Z,1.80
2022-12-31T07:46:57.880Z,0.70
2022-12-31T07:49:29.531Z,0.70
2022-12-31T07:51:58.878Z,1.10
2022-12-31T07:54:27.665Z,1.40
2022-12-31T07:56:56.352Z,2.10
2022-12-31T07:59:34.254Z,1.10
2022-12-31T08:02:05.729Z,1.10
2022-12-31T08:04:50.986Z,1.00
2022-12-31T08:07:57.861Z,1.10
2022-12-31T08:10:42.536Z,0.90
2022-12-31T08:13:12.816Z,0.90
2022-12-31T08:15:43.028Z,1.90
2022-12-31T08:18:13.075Z,1.20
2022-12-31T08:21:05.433Z,0.90
2022-12-31T08:23:45.709Z,0.70
2022-12-31T08:26:32.756Z,0.50
2022-12-31T08:29:11.738Z,1.10
2022-12-31T08:32:10.982Z,0.70
2022-12-31T08:35:09.263Z,0.50
2022-12-31T08:38:01.331Z,0.50
2022-12-31T08:41:08.347Z,0.90
2022-12-31T08:44:14.453Z,0.50
2022-12-31T08:46:54.893Z,0.50
2022-12-31T08:49:28.473Z,0.50
2022-12-31T08:51:59.475Z,0.70
2022-12-31T08:54:30.691Z,0.50
2022-12-31T08:57:19.005Z,0.60
2022-12-31T09:00:19.000Z,0.70
2022-12-31T09:03:16.702Z,0.70
2022-12-31T09:06:15.089Z,0.60
2022-12-31T09:09:31.492Z,0.70
2022-12-31T09:12:14.311Z,0.40
2022-12-31T09:15:03.676Z,0.70
2022-12-31T09:17:45.571Z,0.60
2022-12-31T09:20:23.274Z,0.70
2022-12-31T09:22:53.908Z,0.90
2022-12-31T09:25:25.048Z,0.70
2022-12-31T09:28:44.731Z,0.50
2022-12-31T09:31:28.411Z,0.40
2022-12-31T09:34:36.170Z,0.70
2022-12-31T09:37:16.274Z,0.50
2022-12-31T09:39:48.058Z,0.50
2022-12-31T09:43:10.753Z,0.40
2022-12-31T09:46:01.169Z,0.40
2022-12-31T09:48:54.623Z,0.40
2022-12-31T09:51:36.686Z,0.50
2022-12-31T09:55:01.523Z,0.40
2022-12-31T09:58:03.981Z,0.60
2022-12-31T10:00:50.213Z,0.50
2022-12-31T10:03:45.699Z,0.60
2022-12-31T10:07:00.192Z,0.50
2022-12-31T10:10:27.526Z,0.50
2022-12-31T10:13:17.303Z,0.70
2022-12-31T10:16:25.658Z,0.40
2022-12-31T10:19:13.290Z,0.50
2022-12-31T10:21:54.881Z,0.40
2022-12-31T10:25:04.998Z,0.40
2022-12-31T10:28:06.144Z,0.40
2022-12-31T10:30:41.021Z,0.40
2022-12-31T10:33:28.605Z,0.50
2022-12-31T10:36:18.182Z,0.40
2022-12-31T10:39:13.564Z,0.30
2022-12-31T10:42:11.778Z,0.30
2022-12-31T10:45:12.357Z,0.40
2022-12-31T10:48:02.812Z,0.40
2022-12-31T10:50:42.250Z,0.40
2022-12-31T10:53:32.748Z,0.50
2022-12-31T10:56:35.073Z,0.30
2022-12-31T10:59:47.636Z,0.40
2022-12-31T11:02:41.203Z,0.70
2022-12-31T11:06:07.549Z,0.40
2022-12-31T11:09:04.388Z,0.40
2022-12-31T11:11:43.936Z,0.40
2022-12-31T11:14:21.530Z,0.40
2022-12-31T11:17:31.598Z,0.40
2022-12-31T11:20:34.167Z,0.40
2022-12-31T11:24:04.305Z,0.40
2022-12-31T11:27:13.228Z,0.30
2022-12-31T11:30:25.741Z,0.40
2022-12-31T11:33:12.657Z,0.40
2022-12-31T11:36:28.250Z,1.10
2022-12-31T11:39:34.611Z,0.90
2022-12-31T11:42:35.360Z,1.90
2022-12-31T11:45:22.231Z,1.40
2022-12-31T11:48:31.564Z,1.70
2022-12-31T11:51:09.201Z,1.10
2022-12-31T11:54:06.873Z,1.70
2022-12-31T11:56:44.564Z,0.90
2022-12-31T11:59:19.280Z,1.20
2022-12-31T12:01:54.739Z,0.90
2022-12-31T12:04:24.208Z,0.80
2022-12-31T12:06:53.616Z,0.60
2022-12-31T12:09:32.682Z,0.50
2022-12-31T12:12:05.431Z,0.60
2022-12-31T12:14:40.842Z,0.50
2022-12-31T12:17:16.972Z,0.50
2022-12-31T12:19:55.288Z,0.30
2022-12-31T12:22:28.228Z,0.30
2022-12-31T12:25:16.208Z,0.40
2022-12-31T12:27:44.790Z,0.50
2022-12-31T12:30:21.854Z,0.40
2022-12-31T12:33:02.324Z,0.50
2022-12-31T12:35:35.129Z,0.50
2022-12-31T12:38:17.863Z,0.50
2022-12-31T12:41:20.949Z,0.40
2022-12-31T12:43:49.924Z,0.60
2022-12-31T12:46:33.695Z,0.60
2022-12-31T12:49:04.355Z,0.60
2022-12-31T12:51:58.477Z,0.60
2022-12-31T12:54:54.712Z,0.80
2022-12-31T12:58:01.469Z,0.80
2022-12-31T13:01:17.851Z,0.60
2022-12-31T13:07:17.228Z,0.50
2022-12-31T13:10:27.382Z,0.80
2022-12-31T13:13:25.218Z,0.50
2022-12-31T13:16:04.654Z,0.50
2022-12-31T13:18:37.781Z,0.50
2022-12-31T13:21:31.841Z,0.50
2022-12-31T13:24:15.810Z,0.50
2022-12-31T13:27:12.144Z,0.50
2022-12-31T13:29:43.085Z,0.40
2022-12-31T13:32:21.503Z,0.50
2022-12-31T13:34:57.048Z,0.50
2022-12-31T13:37:37.197Z,0.80
2022-12-31T13:40:21.458Z,0.40
2022-12-31T13:43:04.170Z,0.70
2022-12-31T13:45:41.681Z,0.60
2022-12-31T13:48:20.391Z,0.40
2022-12-31T13:51:00.683Z,0.50
2022-12-31T13:53:51.548Z,0.50
2022-12-31T13:56:27.687Z,0.40
2022-12-31T13:59:13.413Z,0.40
2022-12-31T14:02:13.534Z,0.40
2022-12-31T14:04:59.432Z,0.50
2022-12-31T14:07:59.437Z,0.60
2022-12-31T14:10:39.183Z,0.40
2022-12-31T14:13:23.034Z,0.30
2022-12-31T14:16:10.893Z,0.50
2022-12-31T14:19:07.501Z,0.40
2022-12-31T14:21:54.726Z,0.80
2022-12-31T14:24:50.103Z,0.50
2022-12-31T14:27:37.172Z,0.50
2022-12-31T14:30:15.164Z,0.60
2022-12-31T14:33:01.768Z,0.60
2022-12-31T14:35:44.176Z,0.60
2022-12-31T14:38:50.750Z,0.50
2022-12-31T14:41:59.495Z,0.70
2022-12-31T14:44:46.508Z,0.50
2022-12-31T14:47:42.528Z,0.50
2022-12-31T14:50:38.086Z,0.50
2022-12-31T14:53:21.982Z,0.60
2022-12-31T14:55:58.860Z,0.40
2022-12-31T14:58:39.075Z,0.40
2022-12-31T15:01:22.787Z,0.60
2022-12-31T15:03:52.593Z,0.40
2022-12-31T15:06:24.232Z,0.60
2022-12-31T15:09:41.586Z,0.50
2022-12-31T15:12:40.262Z,0.80
2022-12-31T15:15:44.469Z,0.50
2022-12-31T15:18:41.833Z,0.50
2022-12-31T15:21:29.973Z,0.40
2022-12-31T15:23:59.169Z,0.60
2022-12-31T15:26:31.682Z,0.60
2022-12-31T15:29:25.727Z,0.70
2022-12-31T15:31:56.469Z,0.60
2022-12-31T15:34:31.240Z,0.70
2022-12-31T15:37:03.796Z,0.40
2022-12-31T15:39:32.619Z,0.50
2022-12-31T15:42:36.754Z,0.60
2022-12-31T15:44:58.298Z,0.90
2022-12-31T15:47:46.649Z,0.80
2022-12-31T15:50:20.625Z,0.60
2022-12-31T15:53:02.973Z,0.40
2022-12-31T15:55:50.058Z,1.10
2022-12-31T15:58:25.435Z,0.80
2022-12-31T16:01:03.573Z,1.50
2022-12-31T16:03:32.930Z,0.90
2022-12-31T16:06:10.832Z,1.30
2022-12-31T16:08:44.176Z,1.10
2022-12-31T16:11:13.058Z,1.10
2022-12-31T16:13:47.379Z,1.60
2022-12-31T16:16:30.219Z,0.70
2022-12-31T16:19:00.046Z,0.70
2022-12-31T16:21:37.296Z,1.70
2022-12-31T16:24:28.570Z,0.70
2022-12-31T16:27:12.625Z,2.70
2022-12-31T16:29:52.232Z,3.30
2022-12-31T16:32:24.759Z,8.00
2022-12-31T16:34:55.099Z,4.80
2022-12-31T16:37:23.967Z,2.90
2022-12-31T16:39:58.747Z,1.70
2022-12-31T16:42:30.869Z,1.00
2022-12-31T16:45:19.114Z,1.30
2022-12-31T16:47:48.923Z,0.80
2022-12-31T16:50:26.844Z,1.40
2022-12-31T16:53:05.431Z,1.80
2022-12-31T16:55:35.617Z,1.10
2022-12-31T16:58:16.759Z,0.80
2022-12-31T17:00:47.899Z,0.60
2022-12-31T17:03:24.121Z,1.10
2022-12-31T17:06:08.094Z,1.20
2022-12-31T17:08:40.058Z,0.90
2022-12-31T17:11:42.847Z,0.50
2022-12-31T17:14:14.287Z,1.40
2022-12-31T17:17:07.146Z,0.90
2022-12-31T17:19:40.753Z,1.80
2022-12-31T17:22:41.410Z,1.60
2022-12-31T17:25:26.408Z,1.00
2022-12-31T17:28:02.290Z,1.50
2022-12-31T17:30:31.825Z,9.60
2022-12-31T17:33:23.458Z,5.70
2022-12-31T17:36:21.115Z,8.70
2022-12-31T17:38:50.417Z,2.30
2022-12-31T17:41:28.654Z,1.40
2022-12-31T17:43:57.924Z,2.00
2022-12-31T17:46:27.239Z,1.40
2022-12-31T17:49:03.203Z,1.10
2022-12-31T17:51:31.868Z,1.60
2022-12-31T17:54:01.464Z,1.60
2022-12-31T17:56:30.164Z,0.90
2022-12-31T17:58:59.670Z,1.00
2022-12-31T18:01:28.738Z,0.90
2022-12-31T18:03:58.579Z,0.90
2022-12-31T18:06:27.532Z,0.90
2022-12-31T18:08:56.159Z,1.10
2022-12-31T18:11:27.137Z,1.60
2022-12-31T18:13:57.143Z,1.30
2022-12-31T18:16:26.050Z,0.90
2022-12-31T18:18:59.080Z,0.90
2022-12-31T18:21:34.717Z,0.80
2022-12-31T18:26:34.637Z,1.20
2022-12-31T18:29:21.193Z,1.00
2022-12-31T18:31:51.071Z,1.40
2022-12-31T18:34:19.683Z,3.00
2022-12-31T18:36:48.695Z,1.70
2022-12-31T18:39:17.676Z,5.90
2022-12-31T18:41:52.399Z,2.70
2022-12-31T18:44:21.088Z,1.80
2022-12-31T18:46:50.601Z,0.60
2022-12-31T18:49:19.178Z,2.00
2022-12-31T18:51:52.587Z,1.10
2022-12-31T18:54:21.726Z,1.10
2022-12-31T18:56:55.284Z,1.00
2022-12-31T18:59:25.702Z,1.10
2022-12-31T19:01:54.394Z,0.80
2022-12-31T19:04:27.865Z,1.20
2022-12-31T19:06:57.505Z,1.80
2022-12-31T19:12:15.796Z,0.70
2022-12-31T19:14:45.985Z,1.70
2022-12-31T19:17:14.777Z,1.20
2022-12-31T19:19:43.355Z,0.90
2022-12-31T19:22:18.295Z,0.90
2022-12-31T19:24:46.981Z,1.40
2022-12-31T19:27:15.663Z,2.30
2022-12-31T19:29:44.376Z,2.10
2022-12-31T19:32:13.199Z,1.10
2022-12-31T19:34:42.151Z,1.10
2022-12-31T19:37:16.872Z,1.90
2022-12-31T19:39:45.551Z,2.40
2022-12-31T19:42:16.384Z,19.60
2022-12-31T19:44:44.982Z,33.80
2022-12-31T19:47:14.291Z,18.80
2022-12-31T19:49:42.857Z,5.30
2022-12-31T19:52:11.658Z,6.20
2022-12-31T19:54:40.341Z,6.20
2022-12-31T19:57:08.928Z,5.00
2022-12-31T19:59:38.219Z,3.30
2022-12-31T20:02:08.816Z,1.90
2022-12-31T20:04:38.460Z,1.30
2022-12-31T20:07:07.044Z,4.60
2022-12-31T20:09:35.737Z,2.20
2022-12-31T20:12:04.927Z,1.70
2022-12-31T20:14:33.615Z,1.50
2022-12-31T20:17:02.334Z,1.40
2022-12-31T20:19:30.989Z,1.40
2022-12-31T20:22:00.711Z,2.60
2022-12-31T20:24:29.294Z,3.40
2022-12-31T20:26:57.983Z,1.10
2022-12-31T20:29:26.864Z,1.00
2022-12-31T20:31:56.809Z,1.70
2022-12-31T20:34:25.802Z,2.60
2022-12-31T20:36:55.176Z,1.70
2022-12-31T20:39:24.540Z,1.00
2022-12-31T20:41:53.163Z,8.50
2022-12-31T20:44:22.175Z,10.50
2022-12-31T20:46:52.020Z,23.90
2022-12-31T20:49:37.504Z,52.60
2022-12-31T20:52:10.337Z,32.10
2022-12-31T20:54:39.641Z,9.60
2022-12-31T20:57:08.685Z,16.80
2022-12-31T20:59:38.561Z,27.20
2022-12-31T21:02:26.456Z,23.70
2022-12-31T21:05:05.397Z,21.90
2022-12-31T21:07:35.552Z,17.70
2022-12-31T21:10:05.003Z,10.90
2022-12-31T21:12:43.731Z,6.60
2022-12-31T21:15:14.422Z,5.50
2022-12-31T21:17:44.941Z,9.80
2022-12-31T21:20:15.658Z,5.60
2022-12-31T21:22:44.558Z,6.20
2022-12-31T21:25:14.836Z,5.50
2022-12-31T21:27:45.136Z,3.80
2022-12-31T21:30:19.379Z,7.40
2022-12-31T21:32:49.138Z,6.30
2022-12-31T21:38:08.465Z,13.00
2022-12-31T21:40:37.728Z,13.70
2022-12-31T21:43:07.124Z,23.20
2022-12-31T21:45:35.707Z,12.90
2022-12-31T21:48:22.538Z,5.90
2022-12-31T21:50:55.721Z,5.20
2022-12-31T21:53:32.229Z,1.80
2022-12-31T21:56:10.920Z,1.10
2022-12-31T21:58:47.227Z,0.90
2022-12-31T22:01:40.911Z,1.00
2022-12-31T22:04:28.198Z,0.90
2022-12-31T22:06:58.515Z,1.00
2022-12-31T22:09:27.278Z,0.60
2022-12-31T22:11:56.387Z,1.10
2022-12-31T22:14:26.722Z,1.20
2022-12-31T22:16:57.302Z,0.90
2022-12-31T22:19:26.942Z,0.80
2022-12-31T22:21:57.076Z,1.00
2022-12-31T22:24:27.079Z,0.90
2022-12-31T22:26:59.901Z,1.00
2022-12-31T22:29:49.645Z,1.00
2022-12-31T22:32:19.765Z,1.10
2022-12-31T22:34:50.400Z,1.40
2022-12-31T22:37:46.487Z,1.10
2022-12-31T22:40:10.900Z,1.00
2022-12-31T22:42:41.050Z,1.00
2022-12-31T22:45:12.098Z,1.00
2022-12-31T22:47:41.172Z,0.80
2022-12-31T22:50:10.238Z,0.90
2022-12-31T22:52:38.860Z,1.00
2022-12-31T22:55:08.833Z,1.10
2022-12-31T22:57:37.468Z,0.90
2022-12-31T23:00:13.080Z,0.70
2022-12-31T23:02:42.408Z,6.60
2022-12-31T23:05:16.070Z,3.30
2022-12-31T23:07:45.111Z,1.40
2022-12-31T23:10:32.634Z,1.80
2022-12-31T23:13:21.495Z,1.60
2022-12-31T23:16:09.246Z,0.90
2022-12-31T23:19:01.864Z,0.80
2022-12-31T23:21:52.793Z,0.80
2022-12-31T23:24:26.241Z,0.70
2022-12-31T23:26:58.860Z,1.30
2022-12-31T23:29:27.549Z,0.80
2022-12-31T23:31:56.609Z,1.20
2022-12-31T23:34:25.338Z,1.00
2022-12-31T23:36:54.025Z,1.20
2022-12-31T23:39:22.718Z,1.40
2022-12-31T23:41:51.599Z,1.20
2022-12-31T23:44:20.796Z,1.20
2022-12-31T23:46:49.813Z,1.50
2022-12-31T23:49:18.483Z,1.30
2022-12-31T23:51:47.380Z,1.40
2022-12-31T23:54:16.154Z,1.60
2022-12-31T23:56:45.069Z,1.40
2022-12-31T23:59:13.745Z,1.30
